Time;durP1;ratioP1;P1;durP2;ratioP2;P2;SDS_P1;SDS_P2;PMS_P1;PMS_P2;Temp;Humidity;BMP_temperature;BMP_pressure;BME280_temperature;BME280_humidity;BME280_pressure;Samples;Min_cycle;Max_cycle;Signal;HPM_P1;HPM_P2
2022/09/18 00:00:46;;;;;;;9.00;4.43;;;12.60;99.90;;;;;;5059714;28;20305;-89
2022/09/18 00:03:15;;;;;;;9.50;4.50;;;12.60;99.90;;;;;;5059606;28;20609;-89
2022/09/18 00:05:42;;;;;;;8.07;3.80;;;12.60;99.90;;;;;;5070456;28;20176;-89
2022/09/18 00:08:11;;;;;;;7.73;4.30;;;12.70;99.90;;;;;;5080219;28;20161;-91
2022/09/18 00:10:46;;;;;;;10.67;4.37;;;12.70;99.90;;;;;;5080809;28;20165;-90
2022/09/18 00:13:16;;;;;;;9.97;4.90;;;12.70;99.90;;;;;;5080746;28;20156;-88
2022/09/18 00:15:54;;;;;;;9.00;4.20;;;12.70;99.90;;;;;;5076068;28;20161;-88
2022/09/18 00:21:44;;;;;;;11.17;3.90;;;12.70;99.90;;;;;;5093971;28;20160;-89
2022/09/18 00:24:12;;;;;;;11.23;3.90;;;12.60;99.90;;;;;;5090501;28;20191;-88
2022/09/18 00:26:38;;;;;;;8.50;3.57;;;12.60;99.90;;;;;;5092324;28;20168;-87
2022/09/18 00:29:04;;;;;;;7.10;3.10;;;12.60;99.90;;;;;;5064412;28;20172;-90
2022/09/18 00:31:46;;;;;;;9.37;3.80;;;12.60;99.90;;;;;;5081773;28;20187;-88
2022/09/18 00:34:14;;;;;;;7.23;3.47;;;12.40;99.90;;;;;;5062320;28;20306;-89
2022/09/18 00:36:41;;;;;;;8.37;3.30;;;12.50;99.90;;;;;;5062845;28;20187;-89
2022/09/18 00:39:07;;;;;;;7.90;3.40;;;12.60;99.90;;;;;;5062126;28;20212;-90
2022/09/18 00:41:44;;;;;;;12.30;3.47;;;12.50;99.90;;;;;;5059760;28;20192;-89
2022/09/18 00:44:41;;;;;;;9.17;3.80;;;12.70;99.90;;;;;;5059648;28;20172;-89
2022/09/18 00:47:10;;;;;;;7.73;3.37;;;12.60;99.90;;;;;;5059715;28;20187;-88
2022/09/18 00:49:47;;;;;;;6.43;3.20;;;12.60;99.90;;;;;;5060925;28;20165;-89
2022/09/18 00:52:37;;;;;;;7.07;3.00;;;12.60;99.90;;;;;;5077466;28;20195;-88
2022/09/18 00:58:43;;;;;;;7.53;3.23;;;12.70;99.90;;;;;;5076901;28;20353;-88
2022/09/18 01:01:20;;;;;;;6.90;3.00;;;12.60;99.30;;;;;;5059296;28;20174;-87
2022/09/18 01:03:49;;;;;;;6.87;2.73;;;12.70;98.10;;;;;;5077355;28;20265;-89
2022/09/18 01:07:00;;;;;;;5.37;2.83;;;12.60;97.70;;;;;;5066719;28;20539;-89
2022/09/18 01:10:08;;;;;;;5.77;2.70;;;12.50;97.70;;;;;;5062450;28;20176;-93
2022/09/18 01:12:46;;;;;;;6.73;2.83;;;12.50;96.70;;;;;;5053534;28;20542;-90
2022/09/18 01:15:20;;;;;;;9.63;3.27;;;12.50;96.00;;;;;;5074895;28;20175;-88
2022/09/18 01:18:00;;;;;;;5.23;2.67;;;12.30;97.60;;;;;;5081776;28;20215;-88
2022/09/18 01:20:59;;;;;;;6.87;2.70;;;12.20;98.00;;;;;;5063369;28;20218;-91
2022/09/18 01:24:27;;;;;;;;;;;;;;;;;;;;;
2022/09/18 01:27:03;;;;;;;4.90;2.80;;;12.30;96.80;;;;;;5079059;28;20254;-89
2022/09/18 01:29:44;;;;;;;6.27;2.87;;;12.30;95.30;;;;;;5059301;28;20548;-92
2022/09/18 01:32:39;;;;;;;8.27;3.63;;;12.20;94.90;;;;;;5077118;28;20683;-88
2022/09/18 01:35:13;;;;;;;7.10;3.00;;;12.10;96.10;;;;;;5057877;28;20176;-89
2022/09/18 01:38:03;;;;;;;8.00;3.77;;;12.10;95.80;;;;;;5058562;28;20173;-89
2022/09/18 01:40:52;;;;;;;8.33;2.63;;;12.00;96.30;;;;;;5075799;28;20207;-88
2022/09/18 01:43:20;;;;;;;5.10;2.57;;;12.00;96.80;;;;;;5062725;28;20188;-88
2022/09/18 01:45:49;;;;;;;8.33;3.27;;;12.00;96.90;;;;;;5081951;28;20157;-90
2022/09/18 01:52:02;;;;;;;6.50;2.57;;;12.00;97.80;;;;;;5075998;28;20232;-89
2022/09/18 01:54:46;;;;;;;7.07;2.40;;;12.10;97.10;;;;;;5058427;28;20168;-89
2022/09/18 01:57:47;;;;;;;6.07;2.30;;;12.00;96.90;;;;;;5058942;28;20200;-90
2022/09/18 02:04:07;;;;;;;5.43;2.43;;;12.00;96.30;;;;;;5077037;28;20210;-89
2022/09/18 02:06:54;;;;;;;6.33;2.40;;;12.00;95.70;;;;;;5059446;28;20172;-89
2022/09/18 02:09:20;;;;;;;6.60;2.57;;;12.00;94.30;;;;;;5059152;28;20272;-89
2022/09/18 02:11:51;;;;;;;6.33;2.77;;;12.10;93.30;;;;;;5058443;28;20195;-89
2022/09/18 02:14:26;;;;;;;5.93;2.53;;;12.20;93.00;;;;;;5057098;28;20192;-90
2022/09/18 02:17:08;;;;;;;7.00;2.33;;;12.30;92.10;;;;;;5058175;28;20176;-88
2022/09/18 02:19:36;;;;;;;5.20;2.10;;;12.10;91.90;;;;;;5057869;28;20582;-88
2022/09/18 02:22:08;;;;;;;7.43;2.70;;;12.10;92.50;;;;;;5075486;28;20231;-89
2022/09/18 02:24:36;;;;;;;6.77;2.17;;;12.00;93.00;;;;;;5058496;28;20168;-90
2022/09/18 02:27:07;;;;;;;4.97;1.70;;;12.00;92.40;;;;;;5058105;28;20535;-86
2022/09/18 02:29:34;;;;;;;4.37;2.27;;;12.00;93.20;;;;;;5073798;28;20176;-89
2022/09/18 02:32:01;;;;;;;6.63;2.00;;;11.90;93.50;;;;;;5076518;28;20179;-91
2022/09/18 02:34:36;;;;;;;7.13;2.30;;;11.90;93.00;;;;;;5078839;28;20168;-88
2022/09/18 02:38:01;;;;;;;8.27;2.73;;;11.80;93.20;;;;;;5076243;28;20266;-89
2022/09/18 02:44:09;;;;;;;6.20;2.70;;;11.80;91.70;;;;;;5075433;28;20526;-88
2022/09/18 02:50:06;;;;;;;8.23;2.37;;;11.70;91.70;;;;;;5019059;28;20348;-90
2022/09/18 02:52:56;;;;;;;6.73;2.43;;;11.80;91.70;;;;;;5022228;28;20177;-89
2022/09/18 02:55:42;;;;;;;4.87;2.40;;;11.70;91.60;;;;;;5076051;28;20279;-89
2022/09/18 03:01:32;;;;;;;4.93;1.83;;;11.60;90.70;;;;;;5076354;28;20222;-90
2022/09/18 03:04:08;;;;;;;7.40;2.27;;;11.70;90.10;;;;;;5057188;28;20653;-90
2022/09/18 03:06:41;;;;;;;4.77;2.00;;;11.80;89.00;;;;;;5057310;28;20567;-92
2022/09/18 03:09:07;;;;;;;5.80;2.37;;;11.60;90.20;;;;;;5075825;28;20172;-88
2022/09/18 03:11:44;;;;;;;4.77;2.50;;;11.50;91.90;;;;;;5059117;28;20200;-89
2022/09/18 03:14:15;;;;;;;5.90;2.30;;;11.60;91.20;;;;;;5060422;28;20221;-92
2022/09/18 03:16:44;;;;;;;5.53;2.00;;;11.60;90.40;;;;;;5076835;28;20233;-91
2022/09/18 03:19:13;;;;;;;5.63;2.00;;;11.50;90.70;;;;;;5057616;28;20710;-90
2022/09/18 03:21:45;;;;;;;6.30;2.07;;;11.50;90.10;;;;;;5058439;28;20252;-95
2022/09/18 03:24:56;;;;;;;7.27;2.13;;;11.50;90.50;;;;;;5059496;28;20648;-94
2022/09/18 03:27:22;;;;;;;5.47;2.10;;;11.50;89.20;;;;;;5056377;28;20192;-89
2022/09/18 03:43:51;;;;;;;4.53;2.10;;;11.40;82.50;;;;;;5013877;28;20185;-89
2022/09/18 03:46:22;;;;;;;4.30;2.10;;;11.30;88.50;;;;;;5012916;28;20260;-87
2022/09/18 03:48:55;;;;;;;3.57;2.23;;;11.30;91.40;;;;;;4998594;28;20289;-89
2022/09/18 03:51:29;;;;;;;5.63;2.47;;;11.40;91.90;;;;;;5016525;28;20239;-88
2022/09/18 03:53:58;;;;;;;5.13;2.20;;;11.50;89.10;;;;;;5018371;28;20335;-88
2022/09/18 03:56:25;;;;;;;5.23;2.00;;;11.50;87.40;;;;;;5017012;28;20190;-88
2022/09/18 03:58:57;;;;;;;4.10;2.50;;;11.50;87.40;;;;;;5001198;28;20218;-88
2022/09/18 04:01:28;;;;;;;3.93;1.90;;;11.50;88.10;;;;;;5067453;28;20191;-89
2022/09/18 04:03:55;;;;;;;10.07;2.30;;;11.50;86.30;;;;;;5061738;28;20179;-90
2022/09/18 04:06:25;;;;;;;6.73;2.40;;;11.50;85.10;;;;;;5060164;28;20184;-89
2022/09/18 04:08:56;;;;;;;3.63;1.80;;;11.60;81.80;;;;;;5081476;28;20677;-88
2022/09/18 04:11:21;;;;;;;4.70;2.40;;;11.60;80.80;;;;;;5063909;28;20169;-88
2022/09/18 04:13:48;;;;;;;6.30;2.53;;;11.70;78.90;;;;;;5062865;28;20526;-89
2022/09/18 04:16:14;;;;;;;6.03;2.57;;;11.40;80.60;;;;;;5062005;28;20184;-88
2022/09/18 04:18:40;;;;;;;7.30;2.30;;;11.40;84.90;;;;;;5078218;28;20192;-88
2022/09/18 04:21:11;;;;;;;5.03;2.40;;;11.50;84.10;;;;;;5059025;28;20207;-90
2022/09/18 04:23:56;;;;;;;6.80;2.53;;;11.50;83.00;;;;;;5060240;28;20195;-87
2022/09/18 04:26:26;;;;;;;6.63;2.50;;;11.50;80.60;;;;;;5062103;28;20235;-88
2022/09/18 04:29:09;;;;;;;3.10;1.90;;;11.40;83.40;;;;;;5061087;28;20208;-89
2022/09/18 04:31:37;;;;;;;5.50;2.30;;;11.50;81.30;;;;;;5060458;28;20165;-88
2022/09/18 04:34:09;;;;;;;4.73;2.10;;;11.50;82.20;;;;;;5059889;28;20173;-88
2022/09/18 04:36:48;;;;;;;8.00;2.43;;;11.40;83.80;;;;;;5060212;28;20175;-89
2022/09/18 04:39:56;;;;;;;5.03;2.40;;;11.40;85.80;;;;;;5062168;28;20215;-89
2022/09/18 04:42:53;;;;;;;5.93;2.50;;;11.40;86.30;;;;;;5078706;28;20208;-89
2022/09/18 04:45:30;;;;;;;3.10;2.13;;;11.30;88.60;;;;;;5061619;28;20172;-89
2022/09/18 04:48:09;;;;;;;7.03;2.37;;;11.30;89.50;;;;;;5061416;28;20188;-89
2022/09/18 04:50:40;;;;;;;5.73;2.60;;;11.40;89.00;;;;;;5060853;28;20173;-89
2022/09/18 04:53:17;;;;;;;5.40;2.30;;;11.40;85.20;;;;;;5081692;28;20160;-89
2022/09/18 04:55:51;;;;;;;4.73;2.23;;;11.30;81.40;;;;;;5068799;28;20171;-89
2022/09/18 04:58:21;;;;;;;5.23;2.10;;;11.40;78.70;;;;;;5097550;28;20152;-89
2022/09/18 05:00:53;;;;;;;6.63;2.30;;;11.30;80.70;;;;;;5078598;28;20195;-89
2022/09/18 05:03:29;;;;;;;6.37;2.43;;;11.30;80.30;;;;;;5074706;28;20168;-90
2022/09/18 05:05:56;;;;;;;5.50;2.30;;;11.40;79.60;;;;;;5078761;28;20226;-88
2022/09/18 05:08:30;;;;;;;6.00;2.33;;;11.20;80.40;;;;;;5069847;28;20169;-90
2022/09/18 05:10:59;;;;;;;6.63;2.40;;;11.20;82.60;;;;;;5064576;28;20176;-88
2022/09/18 05:13:40;;;;;;;6.70;2.50;;;11.10;85.40;;;;;;5066481;28;20667;-93
2022/09/18 05:16:06;;;;;;;6.53;2.27;;;11.20;86.70;;;;;;5082334;28;20177;-89
2022/09/18 05:18:37;;;;;;;5.93;2.27;;;11.20;85.80;;;;;;5076914;28;20184;-88
2022/09/18 05:21:06;;;;;;;3.90;2.13;;;11.30;84.50;;;;;;5073098;28;20195;-89
2022/09/18 05:23:36;;;;;;;4.37;1.90;;;11.20;84.20;;;;;;5071874;28;20613;-90
2022/09/18 05:26:02;;;;;;;4.40;2.30;;;11.20;84.00;;;;;;5070917;28;20164;-93
2022/09/18 05:28:33;;;;;;;5.00;2.13;;;11.30;83.40;;;;;;5063778;28;20188;-88
2022/09/18 05:31:04;;;;;;;5.13;1.90;;;11.20;82.20;;;;;;5069409;28;20209;-89
2022/09/18 05:33:30;;;;;;;5.47;2.60;;;11.20;81.70;;;;;;5082051;28;20176;-88
2022/09/18 05:36:04;;;;;;;5.07;2.17;;;11.20;82.30;;;;;;5083584;28;20212;-89
2022/09/18 05:38:44;;;;;;;5.57;2.50;;;11.20;82.80;;;;;;5071256;28;20176;-88
2022/09/18 05:44:33;;;;;;;5.93;2.33;;;11.30;82.40;;;;;;5077858;28;20235;-88
2022/09/18 05:46:59;;;;;;;4.87;2.20;;;11.20;82.60;;;;;;5058480;28;20188;-88
2022/09/18 05:49:28;;;;;;;7.37;2.27;;;11.10;82.80;;;;;;5058703;28;20191;-88
2022/09/18 05:52:11;;;;;;;10.50;2.20;;;11.10;84.30;;;;;;5076946;28;20202;-88
2022/09/18 05:54:42;;;;;;;4.53;2.27;;;11.20;85.70;;;;;;5059162;28;20176;-88
2022/09/18 05:57:10;;;;;;;5.67;2.50;;;11.10;83.80;;;;;;5058876;28;20174;-88
2022/09/18 05:59:42;;;;;;;4.23;2.60;;;11.20;84.30;;;;;;5077408;28;20211;-89
2022/09/18 06:02:19;;;;;;;5.43;2.40;;;11.20;83.70;;;;;;5067541;28;20172;-87
2022/09/18 06:05:01;;;;;;;7.73;2.87;;;11.30;80.30;;;;;;5081999;28;20195;-90
2022/09/18 06:07:31;;;;;;;4.50;2.20;;;11.40;74.80;;;;;;5082299;28;20248;-88
2022/09/18 06:09:57;;;;;;;4.27;2.10;;;11.40;74.10;;;;;;5063477;28;20169;-88
2022/09/18 06:12:28;;;;;;;5.63;2.40;;;11.30;73.10;;;;;;5061165;28;20573;-88
2022/09/18 06:15:54;;;;;;;5.27;2.07;;;11.40;70.40;;;;;;5076584;28;20210;-88
2022/09/18 06:18:36;;;;;;;4.60;2.17;;;11.40;67.10;;;;;;5064866;28;20230;-88
2022/09/18 06:21:27;;;;;;;4.93;1.83;;;11.40;69.50;;;;;;5057672;28;20181;-88
2022/09/18 06:23:59;;;;;;;7.27;2.10;;;11.40;66.10;;;;;;5059385;28;20164;-90
2022/09/18 06:26:34;;;;;;;5.80;2.57;;;11.50;66.40;;;;;;5060618;28;20175;-88
2022/09/18 06:29:00;;;;;;;5.63;2.43;;;11.40;71.10;;;;;;5060938;28;20179;-90
2022/09/18 06:31:36;;;;;;;6.43;2.00;;;11.40;73.10;;;;;;5077623;28;20160;-89
2022/09/18 06:34:02;;;;;;;4.20;2.60;;;11.40;74.50;;;;;;5060276;28;20268;-88
2022/09/18 06:36:29;;;;;;;7.80;2.43;;;11.40;75.00;;;;;;5063290;28;20212;-89
2022/09/18 06:39:02;;;;;;;5.23;2.50;;;11.40;75.50;;;;;;5065249;28;20290;-89
2022/09/18 06:41:33;;;;;;;6.00;2.47;;;11.60;74.80;;;;;;5067560;28;20710;-91
2022/09/18 06:44:05;;;;;;;5.03;2.30;;;11.50;75.10;;;;;;5060834;28;20164;-88
2022/09/18 06:46:34;;;;;;;6.13;2.50;;;11.60;74.30;;;;;;5059192;28;20255;-90
2022/09/18 06:49:07;;;;;;;4.90;2.33;;;11.70;73.70;;;;;;5042348;28;20190;-88
2022/09/18 06:51:34;;;;;;;9.00;2.33;;;11.70;73.70;;;;;;5046640;28;20260;-89
2022/09/18 06:54:00;;;;;;;4.87;1.73;;;11.80;71.90;;;;;;5042287;28;20175;-88
2022/09/18 06:56:26;;;;;;;4.63;2.40;;;12.10;64.90;;;;;;5041027;28;20176;-89
2022/09/18 06:59:01;;;;;;;5.87;2.03;;;12.20;55.80;;;;;;5040741;28;20243;-88
2022/09/18 07:01:50;;;;;;;3.77;1.90;;;12.30;55.30;;;;;;5093149;28;20618;-88
2022/09/18 07:04:16;;;;;;;5.90;2.20;;;12.40;49.60;;;;;;5109163;28;20184;-88
2022/09/18 07:06:52;;;;;;;5.30;1.83;;;12.50;46.00;;;;;;5092836;28;20172;-89
2022/09/18 07:09:18;;;;;;;3.90;1.73;;;12.50;44.50;;;;;;5091793;28;20532;-89
2022/09/18 07:11:45;;;;;;;6.40;2.67;;;12.50;46.40;;;;;;5092066;28;20628;-90
2022/09/18 07:14:12;;;;;;;5.97;1.93;;;12.50;47.30;;;;;;5092333;28;20666;-90
2022/09/18 07:16:57;;;;;;;6.97;2.33;;;12.50;48.30;;;;;;5091190;28;20175;-88
2022/09/18 07:19:42;;;;;;;5.13;2.20;;;12.60;45.40;;;;;;5092907;28;20615;-89
2022/09/18 07:22:17;;;;;;;3.73;1.90;;;12.70;44.80;;;;;;5092663;28;20180;-88
2022/09/18 07:25:07;;;;;;;3.90;1.90;;;12.60;46.30;;;;;;5102140;28;20150;-89
2022/09/18 07:27:40;;;;;;;7.37;2.47;;;12.80;44.40;;;;;;5107890;28;20164;-89
2022/09/18 07:30:15;;;;;;;6.80;1.90;;;13.00;37.10;;;;;;5099806;28;20198;-91
2022/09/18 07:32:46;;;;;;;4.73;2.10;;;12.90;33.60;;;;;;5117325;28;20197;-88
2022/09/18 07:35:14;;;;;;;5.47;2.10;;;13.00;36.70;;;;;;5117378;28;20227;-91
2022/09/18 07:38:00;;;;;;;6.23;2.10;;;13.00;34.00;;;;;;5104446;28;20163;-89
2022/09/18 07:40:27;;;;;;;3.77;1.80;;;13.00;33.10;;;;;;5122805;28;20286;-89
2022/09/18 07:43:11;;;;;;;3.57;2.20;;;13.10;30.30;;;;;;5108568;28;20194;-89
2022/09/18 07:45:39;;;;;;;4.27;2.20;;;13.20;29.30;;;;;;5123306;28;20167;-90
2022/09/18 07:48:06;;;;;;;5.27;2.00;;;13.20;28.40;;;;;;5089239;28;20177;-89
2022/09/18 07:50:35;;;;;;;5.47;2.30;;;13.40;26.80;;;;;;5091899;28;20229;-90
2022/09/18 07:53:04;;;;;;;4.40;2.20;;;13.40;27.20;;;;;;5090353;28;20164;-90
2022/09/18 07:55:36;;;;;;;6.63;2.87;;;13.40;26.60;;;;;;5087474;28;20651;-92
2022/09/18 07:58:24;;;;;;;6.37;2.40;;;13.30;25.70;;;;;;5100510;28;20560;-88
2022/09/18 08:00:53;;;;;;;5.93;2.40;;;13.30;25.40;;;;;;5121865;28;20235;-89
2022/09/18 08:03:20;;;;;;;6.13;2.27;;;13.30;23.80;;;;;;5113740;28;20207;-90
2022/09/18 08:06:01;;;;;;;4.67;2.17;;;13.40;21.00;;;;;;5108965;28;20175;-89
2022/09/18 08:08:29;;;;;;;3.47;2.33;;;13.40;20.40;;;;;;5072589;28;20198;-88
2022/09/18 08:10:56;;;;;;;4.23;2.30;;;13.40;20.60;;;;;;5068462;28;20657;-88
2022/09/18 08:13:24;;;;;;;5.50;2.50;;;13.40;19.00;;;;;;5057428;28;20173;-90
2022/09/18 08:15:49;;;;;;;5.57;2.70;;;13.40;23.10;;;;;;5057208;28;20295;-89
2022/09/18 08:18:20;;;;;;;5.07;2.57;;;13.40;22.80;;;;;;5071337;28;20165;-87
2022/09/18 08:20:48;;;;;;;4.63;2.47;;;13.50;23.20;;;;;;5074227;28;20192;-89
2022/09/18 08:23:14;;;;;;;7.47;2.50;;;13.70;25.10;;;;;;5083641;28;20162;-92
2022/09/18 08:25:45;;;;;;;5.57;2.20;;;13.50;26.40;;;;;;5088270;28;20172;-89
2022/09/18 08:28:36;;;;;;;5.37;2.10;;;13.70;24.70;;;;;;5089821;28;20161;-89
2022/09/18 08:31:02;;;;;;;6.43;2.07;;;13.70;22.30;;;;;;5091864;28;20174;-90
2022/09/18 08:33:33;;;;;;;6.43;2.33;;;13.80;22.40;;;;;;5093509;28;20154;-90
2022/09/18 08:36:31;;;;;;;6.13;2.10;;;13.80;20.20;;;;;;5086537;28;20169;-89
2022/09/18 08:39:39;;;;;;;;;;;;;;;;;;;;;
2022/09/18 08:42:32;;;;;;;4.60;2.00;;;13.80;20.50;;;;;;5092941;28;20292;-89
2022/09/18 08:45:26;;;;;;;4.17;1.80;;;13.80;21.70;;;;;;5095628;28;20651;-88
2022/09/18 08:48:01;;;;;;;7.53;2.37;;;13.80;21.60;;;;;;5095228;28;20264;-89
2022/09/18 08:50:39;;;;;;;7.10;2.20;;;13.80;25.20;;;;;;5097996;28;20167;-89
2022/09/18 08:53:19;;;;;;;4.63;2.30;;;13.90;22.90;;;;;;5082426;28;20640;-91
2022/09/18 08:55:47;;;;;;;4.87;2.13;;;14.00;21.30;;;;;;5096624;28;20650;-89
2022/09/18 08:58:25;;;;;;;7.60;2.30;;;14.00;21.30;;;;;;5095224;28;20243;-91
2022/09/18 09:01:11;;;;;;;6.13;2.33;;;14.10;20.50;;;;;;5095854;28;20668;-90
2022/09/18 09:04:00;;;;;;;6.73;2.00;;;14.20;20.30;;;;;;5095314;28;20688;-91
2022/09/18 09:07:05;;;;;;;6.13;2.37;;;14.30;19.20;;;;;;5094554;28;20170;-89
2022/09/18 09:10:03;;;;;;;5.13;2.20;;;14.40;15.20;;;;;;5095227;28;20932;-89
2022/09/18 09:12:39;;;;;;;4.97;2.30;;;14.40;17.30;;;;;;5085925;28;20272;-89
2022/09/18 09:15:29;;;;;;;7.33;2.30;;;14.50;18.20;;;;;;5094806;28;20220;-90
2022/09/18 09:18:13;;;;;;;4.57;2.10;;;14.60;14.50;;;;;;5094761;28;20269;-89
2022/09/18 09:20:55;;;;;;;6.23;2.10;;;14.70;12.30;;;;;;5089009;28;20226;-90
2022/09/18 09:23:36;;;;;;;4.10;1.77;;;14.80;7.50;;;;;;5054028;28;20185;-90
2022/09/18 09:26:41;;;;;;;4.47;1.90;;;14.80;5.60;;;;;;5054650;28;20261;-89
2022/09/18 09:29:22;;;;;;;3.33;1.83;;;14.80;1.00;;;;;;5044794;28;20185;-93
2022/09/18 09:31:56;;;;;;;3.67;2.00;;;14.90;1.00;;;;;;5054704;28;20182;-91
2022/09/18 09:34:33;;;;;;;3.60;1.80;;;14.80;1.00;;;;;;5053401;28;20205;-91
2022/09/18 09:37:05;;;;;;;4.33;1.90;;;15.00;1.00;;;;;;5055237;28;20175;-89
2022/09/18 09:40:12;;;;;;;;;;;;;;;;;;;;;
2022/09/18 09:42:58;;;;;;;6.07;2.23;;;15.00;1.00;;;;;;5055719;28;20655;-89
2022/09/18 09:45:37;;;;;;;5.60;2.13;;;15.10;1.00;;;;;;5055318;28;20167;-89
2022/09/18 09:48:30;;;;;;;4.00;1.97;;;15.10;1.00;;;;;;5058584;28;20171;-89
2022/09/18 09:51:30;;;;;;;3.97;1.80;;;15.20;1.00;;;;;;5084108;28;20263;-87
2022/09/18 09:54:00;;;;;;;3.50;1.73;;;15.20;1.00;;;;;;5072601;28;20188;-91
2022/09/18 09:56:29;;;;;;;7.90;1.90;;;15.20;1.00;;;;;;5077376;28;20233;-89
2022/09/18 09:59:25;;;;;;;4.70;2.00;;;15.30;1.00;;;;;;5075515;28;20209;-89
2022/09/18 10:02:40;;;;;;;5.30;2.00;;;15.30;1.00;;;;;;5065251;28;20278;-89
2022/09/18 10:05:33;;;;;;;7.73;2.33;;;15.40;1.00;;;;;;5038545;28;20169;-90
2022/09/18 10:08:24;;;;;;;5.40;2.00;;;15.30;1.00;;;;;;5066703;28;20523;-90
2022/09/18 10:11:02;;;;;;;3.73;1.80;;;15.20;1.00;;;;;;5063306;28;20230;-89
2022/09/18 10:13:40;;;;;;;5.87;2.47;;;15.40;1.00;;;;;;5060345;28;20203;-89
2022/09/18 10:16:23;;;;;;;4.63;2.03;;;15.50;1.00;;;;;;5064351;28;20233;-90
2022/09/18 10:18:49;;;;;;;4.87;2.00;;;15.70;1.00;;;;;;5076650;28;20161;-89
2022/09/18 10:21:41;;;;;;;4.47;2.00;;;15.80;1.00;;;;;;5073341;28;20216;-89
2022/09/18 10:24:32;;;;;;;4.60;2.00;;;15.80;1.00;;;;;;5067993;28;20172;-89
2022/09/18 10:27:06;;;;;;;3.63;1.90;;;15.80;1.00;;;;;;5059630;28;20267;-90
2022/09/18 10:29:32;;;;;;;4.47;1.87;;;15.80;1.00;;;;;;5058108;28;20173;-89
2022/09/18 10:32:03;;;;;;;3.57;1.73;;;16.00;1.00;;;;;;5042058;28;20267;-91
2022/09/18 10:34:39;;;;;;;4.97;1.83;;;15.80;1.00;;;;;;5056668;28;20169;-91
2022/09/18 10:37:13;;;;;;;3.50;1.67;;;15.90;1.00;;;;;;5057308;28;20179;-92
2022/09/18 10:39:51;;;;;;;5.07;2.03;;;15.80;1.00;;;;;;5063494;28;20203;-90
2022/09/18 10:42:24;;;;;;;3.00;1.90;;;15.90;1.00;;;;;;5074318;28;20200;-92
2022/09/18 10:45:21;;;;;;;5.43;1.90;;;15.90;1.00;;;;;;5059109;28;20169;-90
2022/09/18 10:48:00;;;;;;;3.37;2.10;;;15.90;1.00;;;;;;5057076;28;20177;-90
2022/09/18 10:50:26;;;;;;;2.57;2.00;;;16.00;1.00;;;;;;5056725;28;20176;-90
2022/09/18 10:52:52;;;;;;;3.53;1.73;;;16.00;1.00;;;;;;5055701;28;20577;-90
2022/09/18 10:55:23;;;;;;;4.83;2.13;;;15.90;1.00;;;;;;5059118;28;20248;-90
2022/09/18 10:57:55;;;;;;;4.20;2.20;;;16.00;1.00;;;;;;5058819;28;20192;-91
2022/09/18 11:00:20;;;;;;;3.53;1.50;;;16.10;1.00;;;;;;5071606;28;20203;-88
2022/09/18 11:02:59;;;;;;;2.90;1.57;;;16.00;1.00;;;;;;5073876;28;20164;-89
2022/09/18 11:05:36;;;;;;;5.73;2.07;;;16.10;1.00;;;;;;5074305;28;20177;-90
2022/09/18 11:08:14;;;;;;;5.30;1.70;;;16.10;1.00;;;;;;5069656;28;20244;-88
2022/09/18 11:10:47;;;;;;;4.23;2.00;;;16.20;1.00;;;;;;5066137;28;20682;-90
2022/09/18 11:13:26;;;;;;;2.50;1.73;;;16.20;1.00;;;;;;5039216;28;20240;-90
2022/09/18 11:15:56;;;;;;;2.30;1.63;;;16.20;1.00;;;;;;5056141;28;20203;-90
2022/09/18 11:18:28;;;;;;;6.37;2.00;;;16.10;1.00;;;;;;5055184;28;20165;-90
2022/09/18 11:20:57;;;;;;;5.23;1.90;;;16.00;1.00;;;;;;5053769;28;20208;-91
2022/09/18 11:23:29;;;;;;;3.77;1.80;;;16.10;1.00;;;;;;5053432;28;20187;-91
2022/09/18 11:26:19;;;;;;;2.43;1.63;;;16.10;1.00;;;;;;5054246;28;20181;-89
2022/09/18 11:29:30;;;;;;;5.73;1.97;;;16.30;1.00;;;;;;5055184;28;20184;-88
2022/09/18 11:32:02;;;;;;;4.13;1.83;;;16.50;1.00;;;;;;5046407;28;20177;-90
2022/09/18 11:34:31;;;;;;;2.93;1.40;;;16.60;1.00;;;;;;5054142;28;20180;-89
2022/09/18 11:37:03;;;;;;;5.83;1.50;;;16.70;1.00;;;;;;5055153;28;20161;-91
2022/09/18 11:39:37;;;;;;;3.47;1.60;;;16.70;1.00;;;;;;5055473;28;20641;-91
2022/09/18 11:42:14;;;;;;;3.10;1.30;;;16.50;1.00;;;;;;5054118;28;20200;-92
2022/09/18 11:44:41;;;;;;;3.57;1.50;;;16.40;1.00;;;;;;5053015;28;20169;-91
2022/09/18 11:47:25;;;;;;;4.63;1.50;;;16.40;1.00;;;;;;5054831;28;20180;-90
2022/09/18 11:50:13;;;;;;;3.03;1.33;;;16.40;1.00;;;;;;5059070;28;20200;-90
2022/09/18 11:52:46;;;;;;;3.10;1.37;;;16.40;1.00;;;;;;5059003;28;20189;-90
2022/09/18 11:55:25;;;;;;;5.70;1.50;;;16.30;1.00;;;;;;5058696;28;20231;-90
2022/09/18 11:58:04;;;;;;;4.17;1.23;;;16.30;1.00;;;;;;5073045;28;20161;-91
2022/09/18 12:00:47;;;;;;;2.90;1.30;;;16.20;1.00;;;;;;5075540;28;20215;-88
2022/09/18 12:03:23;;;;;;;2.07;1.17;;;16.30;1.00;;;;;;5077760;28;20195;-90
2022/09/18 12:06:15;;;;;;;3.07;1.43;;;16.50;1.00;;;;;;5076820;28;20211;-89
2022/09/18 12:08:46;;;;;;;2.73;1.00;;;16.60;1.00;;;;;;5071543;28;20204;-90
2022/09/18 12:11:19;;;;;;;2.90;1.13;;;16.50;1.00;;;;;;5073999;28;20177;-88
2022/09/18 12:14:20;;;;;;;3.47;0.97;;;16.60;1.00;;;;;;5074048;28;20173;-89
2022/09/18 12:17:25;;;;;;;3.20;1.23;;;16.70;1.00;;;;;;5076211;28;20215;-89
2022/09/18 12:19:59;;;;;;;2.27;1.10;;;16.70;1.00;;;;;;5060498;28;20211;-90
2022/09/18 12:22:46;;;;;;;2.93;1.30;;;16.80;1.00;;;;;;5077887;28;20183;-89
2022/09/18 12:25:17;;;;;;;2.97;1.40;;;16.60;1.00;;;;;;5077952;28;20657;-91
2022/09/18 12:28:03;;;;;;;2.13;1.20;;;16.50;1.00;;;;;;5074658;28;20173;-89
2022/09/18 12:30:43;;;;;;;1.90;1.00;;;16.50;1.00;;;;;;5072822;28;20181;-90
2022/09/18 12:33:32;;;;;;;2.40;0.90;;;16.70;1.00;;;;;;5077270;28;20161;-89
2022/09/18 12:36:25;;;;;;;2.37;0.97;;;16.70;1.00;;;;;;5062476;28;20306;-89
2022/09/18 12:39:13;;;;;;;1.97;0.90;;;16.60;1.00;;;;;;5058809;28;20199;-90
2022/09/18 12:42:08;;;;;;;1.43;0.90;;;16.60;1.00;;;;;;5057728;28;20267;-91
2022/09/18 12:44:41;;;;;;;2.00;1.10;;;16.50;1.00;;;;;;5061310;28;20195;-91
2022/09/18 12:47:34;;;;;;;3.47;0.90;;;16.50;1.00;;;;;;5057577;28;20200;-90
2022/09/18 12:50:16;;;;;;;3.37;1.00;;;16.40;1.00;;;;;;5057668;28;20226;-90
2022/09/18 12:52:55;;;;;;;2.63;1.37;;;16.40;1.00;;;;;;5057796;28;20177;-92
2022/09/18 12:55:42;;;;;;;4.00;1.10;;;16.50;1.00;;;;;;5058134;28;20172;-91
2022/09/18 12:58:39;;;;;;;2.23;0.93;;;16.60;1.00;;;;;;5057424;28;20172;-90
2022/09/18 13:01:20;;;;;;;2.00;0.80;;;16.50;1.00;;;;;;5056125;28;20239;-90
2022/09/18 13:03:48;;;;;;;1.87;1.00;;;16.50;1.00;;;;;;5056599;28;20169;-90
2022/09/18 13:06:19;;;;;;;1.77;1.00;;;16.50;1.00;;;;;;5056954;28;20200;-90
2022/09/18 13:09:03;;;;;;;3.27;1.03;;;16.50;1.00;;;;;;5056430;28;20565;-90
2022/09/18 13:11:36;;;;;;;2.43;1.00;;;16.50;1.00;;;;;;5055264;28;20263;-91
2022/09/18 13:14:21;;;;;;;2.70;1.37;;;16.40;1.00;;;;;;5056554;28;20176;-91
2022/09/18 13:16:54;;;;;;;2.93;1.67;;;16.40;1.00;;;;;;5056267;28;20176;-90
2022/09/18 13:20:04;;;;;;;3.30;1.70;;;16.40;1.00;;;;;;5053991;28;20184;-91
2022/09/18 13:22:35;;;;;;;3.90;1.70;;;16.40;1.00;;;;;;5058173;28;20201;-90
2022/09/18 13:25:05;;;;;;;3.67;1.03;;;16.40;1.00;;;;;;5073436;28;20197;-89
2022/09/18 13:27:31;;;;;;;3.27;1.60;;;16.30;1.00;;;;;;5065512;28;20177;-90
2022/09/18 13:30:14;;;;;;;5.00;1.90;;;16.50;1.00;;;;;;5063424;28;20173;-91
2022/09/18 13:32:41;;;;;;;3.30;1.57;;;16.70;1.00;;;;;;5056643;28;20199;-90
2022/09/18 13:35:13;;;;;;;2.83;1.20;;;16.90;1.00;;;;;;5056711;28;20180;-90
2022/09/18 13:37:41;;;;;;;5.43;1.40;;;16.70;1.00;;;;;;5057828;28;20173;-89
2022/09/18 13:40:32;;;;;;;2.20;1.13;;;16.50;1.00;;;;;;5066901;28;20272;-91
2022/09/18 13:43:12;;;;;;;3.40;1.00;;;16.50;1.00;;;;;;5073058;28;20180;-90
2022/09/18 13:45:40;;;;;;;2.00;0.90;;;16.60;1.00;;;;;;5065677;28;20168;-89
2022/09/18 13:48:20;;;;;;;3.20;1.17;;;16.50;1.00;;;;;;5062687;28;20255;-90
2022/09/18 13:50:58;;;;;;;3.43;1.60;;;16.60;1.00;;;;;;5056847;28;20173;-92
2022/09/18 13:53:42;;;;;;;3.33;1.33;;;16.70;1.00;;;;;;5056220;28;20181;-90
2022/09/18 13:56:11;;;;;;;4.10;1.40;;;16.80;1.00;;;;;;5055040;28;20184;-90
2022/09/18 13:58:48;;;;;;;3.47;1.07;;;16.90;1.00;;;;;;5056296;28;20207;-91
2022/09/18 14:01:42;;;;;;;2.50;1.07;;;16.70;1.00;;;;;;5070089;28;20243;-91
2022/09/18 14:04:39;;;;;;;1.13;0.80;;;16.70;1.00;;;;;;5085261;28;20192;-90
2022/09/18 14:07:28;;;;;;;2.20;0.90;;;16.70;1.00;;;;;;5058450;28;20173;-90
2022/09/18 14:10:24;;;;;;;1.90;1.10;;;16.70;1.00;;;;;;5062094;28;20176;-91
2022/09/18 14:13:12;;;;;;;2.63;1.10;;;16.80;1.00;;;;;;5039489;28;20177;-91
2022/09/18 14:15:38;;;;;;;2.67;1.03;;;16.80;1.00;;;;;;5056603;28;20222;-91
2022/09/18 14:18:16;;;;;;;2.90;1.43;;;16.80;1.00;;;;;;5054571;28;20571;-91
2022/09/18 14:20:51;;;;;;;2.73;0.90;;;16.70;1.00;;;;;;5048821;28;20204;-91
2022/09/18 14:23:41;;;;;;;1.87;0.97;;;16.60;1.00;;;;;;5054208;28;20707;-90
2022/09/18 14:26:26;;;;;;;2.83;1.07;;;16.50;1.00;;;;;;5054182;28;20215;-91
2022/09/18 14:28:52;;;;;;;2.70;1.30;;;16.50;1.00;;;;;;5056981;28;20212;-91